sensor_id;sensor_type;location;lat;lon;timestamp;P1;durP1;ratioP1;P2;durP2;ratioP2
21562;SDS011;10942;47.894;11.424;2023-05-23T00:01:53;14.68;;;7.82;;
21562;SDS011;10942;47.894;11.424;2023-05-23T00:04:19;10.70;;;8.10;;
21562;SDS011;10942;47.894;11.424;2023-05-23T00:06:45;9.52;;;8.07;;
21562;SDS011;10942;47.894;11.424;2023-05-23T00:09:14;11.65;;;7.70;;
21562;SDS011;10942;47.894;11.424;2023-05-23T00:11:41;11.65;;;8.07;;
21562;SDS011;10942;47.894;11.424;2023-05-23T00:14:13;12.23;;;8.88;;
21562;SDS011;10942;47.894;11.424;2023-05-23T00:16:40;11.70;;;8.50;;
21562;SDS011;10942;47.894;11.424;2023-05-23T00:19:07;11.93;;;8.45;;
21562;SDS011;10942;47.894;11.424;2023-05-23T00:21:33;10.93;;;8.13;;
21562;SDS011;10942;47.894;11.424;2023-05-23T00:23:58;14.30;;;8.75;;
21562;SDS011;10942;47.894;11.424;2023-05-23T00:26:26;12.90;;;8.60;;
21562;SDS011;10942;47.894;11.424;2023-05-23T00:28:54;11.45;;;8.20;;
21562;SDS011;10942;47.894;11.424;2023-05-23T00:31:20;11.35;;;8.40;;
21562;SDS011;10942;47.894;11.424;2023-05-23T00:33:46;11.93;;;8.82;;
21562;SDS011;10942;47.894;11.424;2023-05-23T00:36:12;16.83;;;8.88;;
21562;SDS011;10942;47.894;11.424;2023-05-23T00:38:38;11.93;;;8.88;;
21562;SDS011;10942;47.894;11.424;2023-05-23T00:41:04;10.60;;;7.70;;
21562;SDS011;10942;47.894;11.424;2023-05-23T00:43:30;11.77;;;8.98;;
21562;SDS011;10942;47.894;11.424;2023-05-23T00:45:57;10.55;;;7.55;;
21562;SDS011;10942;47.894;11.424;2023-05-23T00:48:23;11.48;;;8.63;;
21562;SDS011;10942;47.894;11.424;2023-05-23T00:50:50;11.63;;;8.23;;
21562;SDS011;10942;47.894;11.424;2023-05-23T00:53:16;12.10;;;8.88;;
21562;SDS011;10942;47.894;11.424;2023-05-23T00:55:43;11.20;;;7.80;;
21562;SDS011;10942;47.894;11.424;2023-05-23T00:58:09;11.25;;;8.25;;
21562;SDS011;10942;47.894;11.424;2023-05-23T01:00:35;13.40;;;9.05;;
21562;SDS011;10942;47.894;11.424;2023-05-23T01:03:02;11.18;;;7.90;;
21562;SDS011;10942;47.894;11.424;2023-05-23T01:05:31;11.20;;;7.85;;
21562;SDS011;10942;47.894;11.424;2023-05-23T01:07:57;12.18;;;7.93;;
21562;SDS011;10942;47.894;11.424;2023-05-23T01:10:27;11.40;;;8.43;;
21562;SDS011;10942;47.894;11.424;2023-05-23T01:13:03;12.20;;;8.00;;
21562;SDS011;10942;47.894;11.424;2023-05-23T01:15:37;11.90;;;8.18;;
21562;SDS011;10942;47.894;11.424;2023-05-23T01:18:15;10.27;;;8.07;;
21562;SDS011;10942;47.894;11.424;2023-05-23T01:20:51;11.27;;;8.02;;
21562;SDS011;10942;47.894;11.424;2023-05-23T01:27:06;17.15;;;8.68;;
21562;SDS011;10942;47.894;11.424;2023-05-23T01:29:53;11.88;;;8.13;;
21562;SDS011;10942;47.894;11.424;2023-05-23T01:32:22;10.82;;;8.38;;
21562;SDS011;10942;47.894;11.424;2023-05-23T01:34:52;13.27;;;8.55;;
21562;SDS011;10942;47.894;11.424;2023-05-23T01:37:18;10.25;;;7.85;;
21562;SDS011;10942;47.894;11.424;2023-05-23T01:39:44;10.57;;;7.95;;
21562;SDS011;10942;47.894;11.424;2023-05-23T01:42:11;10.20;;;7.32;;
21562;SDS011;10942;47.894;11.424;2023-05-23T01:44:37;10.50;;;7.75;;
21562;SDS011;10942;47.894;11.424;2023-05-23T01:47:04;11.57;;;8.13;;
21562;SDS011;10942;47.894;11.424;2023-05-23T01:49:32;11.40;;;8.32;;
21562;SDS011;10942;47.894;11.424;2023-05-23T01:51:59;13.50;;;8.93;;
21562;SDS011;10942;47.894;11.424;2023-05-23T01:54:27;12.20;;;8.18;;
21562;SDS011;10942;47.894;11.424;2023-05-23T01:56:54;11.60;;;7.80;;
21562;SDS011;10942;47.894;11.424;2023-05-23T01:59:21;12.40;;;8.30;;
21562;SDS011;10942;47.894;11.424;2023-05-23T02:01:47;13.65;;;8.43;;
21562;SDS011;10942;47.894;11.424;2023-05-23T02:04:13;9.70;;;7.70;;
21562;SDS011;10942;47.894;11.424;2023-05-23T02:06:40;11.20;;;8.10;;
21562;SDS011;10942;47.894;11.424;2023-05-23T02:09:10;13.00;;;8.30;;
21562;SDS011;10942;47.894;11.424;2023-05-23T02:11:35;9.52;;;7.72;;
21562;SDS011;10942;47.894;11.424;2023-05-23T02:14:01;11.68;;;8.18;;
21562;SDS011;10942;47.894;11.424;2023-05-23T02:16:27;10.20;;;8.52;;
21562;SDS011;10942;47.894;11.424;2023-05-23T02:18:53;14.23;;;7.95;;
21562;SDS011;10942;47.894;11.424;2023-05-23T02:21:21;12.27;;;8.40;;
21562;SDS011;10942;47.894;11.424;2023-05-23T02:23:47;11.65;;;8.85;;
21562;SDS011;10942;47.894;11.424;2023-05-23T02:26:15;11.93;;;7.88;;
21562;SDS011;10942;47.894;11.424;2023-05-23T02:28:42;12.07;;;8.82;;
21562;SDS011;10942;47.894;11.424;2023-05-23T02:31:08;13.38;;;7.90;;
21562;SDS011;10942;47.894;11.424;2023-05-23T02:33:34;9.80;;;7.68;;
21562;SDS011;10942;47.894;11.424;2023-05-23T02:35:59;10.60;;;8.18;;
21562;SDS011;10942;47.894;11.424;2023-05-23T02:38:26;11.75;;;8.52;;
21562;SDS011;10942;47.894;11.424;2023-05-23T02:40:52;11.10;;;8.43;;
21562;SDS011;10942;47.894;11.424;2023-05-23T02:43:18;11.23;;;9.02;;
21562;SDS011;10942;47.894;11.424;2023-05-23T02:45:44;10.82;;;8.30;;
21562;SDS011;10942;47.894;11.424;2023-05-23T02:48:10;10.52;;;8.23;;
21562;SDS011;10942;47.894;11.424;2023-05-23T02:50:36;12.57;;;9.00;;
21562;SDS011;10942;47.894;11.424;2023-05-23T02:53:02;11.85;;;8.63;;
21562;SDS011;10942;47.894;11.424;2023-05-23T02:55:28;12.30;;;8.50;;
21562;SDS011;10942;47.894;11.424;2023-05-23T02:57:56;11.40;;;8.55;;
21562;SDS011;10942;47.894;11.424;2023-05-23T03:00:23;11.80;;;8.65;;
21562;SDS011;10942;47.894;11.424;2023-05-23T03:02:52;10.85;;;8.43;;
21562;SDS011;10942;47.894;11.424;2023-05-23T03:05:18;12.05;;;8.43;;
21562;SDS011;10942;47.894;11.424;2023-05-23T03:07:44;11.60;;;8.20;;
21562;SDS011;10942;47.894;11.424;2023-05-23T03:10:10;11.65;;;8.40;;
21562;SDS011;10942;47.894;11.424;2023-05-23T03:12:36;13.10;;;8.63;;
21562;SDS011;10942;47.894;11.424;2023-05-23T03:15:02;13.25;;;8.75;;
21562;SDS011;10942;47.894;11.424;2023-05-23T03:17:28;12.23;;;8.48;;
21562;SDS011;10942;47.894;11.424;2023-05-23T03:19:55;10.88;;;8.65;;
21562;SDS011;10942;47.894;11.424;2023-05-23T03:22:21;10.63;;;8.25;;
21562;SDS011;10942;47.894;11.424;2023-05-23T03:24:46;13.52;;;8.75;;
21562;SDS011;10942;47.894;11.424;2023-05-23T03:27:12;12.20;;;8.93;;
21562;SDS011;10942;47.894;11.424;2023-05-23T03:29:38;13.70;;;9.77;;
21562;SDS011;10942;47.894;11.424;2023-05-23T03:32:04;12.45;;;8.60;;
21562;SDS011;10942;47.894;11.424;2023-05-23T03:34:30;13.48;;;8.45;;
21562;SDS011;10942;47.894;11.424;2023-05-23T03:36:58;11.65;;;8.05;;
21562;SDS011;10942;47.894;11.424;2023-05-23T03:39:24;13.00;;;8.77;;
21562;SDS011;10942;47.894;11.424;2023-05-23T03:41:50;10.32;;;8.15;;
21562;SDS011;10942;47.894;11.424;2023-05-23T03:44:16;15.38;;;8.55;;
21562;SDS011;10942;47.894;11.424;2023-05-23T03:46:41;10.82;;;8.30;;
21562;SDS011;10942;47.894;11.424;2023-05-23T03:49:08;11.32;;;8.50;;
21562;SDS011;10942;47.894;11.424;2023-05-23T03:51:34;12.30;;;8.20;;
21562;SDS011;10942;47.894;11.424;2023-05-23T03:54:00;14.45;;;7.97;;
21562;SDS011;10942;47.894;11.424;2023-05-23T03:56:25;11.40;;;8.07;;
21562;SDS011;10942;47.894;11.424;2023-05-23T03:58:51;10.95;;;8.57;;
21562;SDS011;10942;47.894;11.424;2023-05-23T04:01:17;13.98;;;9.25;;
21562;SDS011;10942;47.894;11.424;2023-05-23T04:03:44;12.75;;;8.77;;
21562;SDS011;10942;47.894;11.424;2023-05-23T04:06:11;12.02;;;8.48;;
21562;SDS011;10942;47.894;11.424;2023-05-23T04:08:38;10.70;;;7.82;;
21562;SDS011;10942;47.894;11.424;2023-05-23T04:11:06;14.90;;;9.65;;
21562;SDS011;10942;47.894;11.424;2023-05-23T04:13:34;14.75;;;8.85;;
21562;SDS011;10942;47.894;11.424;2023-05-23T04:16:01;14.48;;;9.38;;
21562;SDS011;10942;47.894;11.424;2023-05-23T04:18:30;89.35;;;53.70;;
21562;SDS011;10942;47.894;11.424;2023-05-23T04:21:04;13.15;;;9.13;;
21562;SDS011;10942;47.894;11.424;2023-05-23T04:23:34;15.65;;;10.20;;
21562;SDS011;10942;47.894;11.424;2023-05-23T04:26:00;10.77;;;8.40;;
21562;SDS011;10942;47.894;11.424;2023-05-23T04:28:32;12.95;;;9.38;;
21562;SDS011;10942;47.894;11.424;2023-05-23T04:30:59;14.95;;;10.05;;
21562;SDS011;10942;47.894;11.424;2023-05-23T04:33:28;14.60;;;9.38;;
21562;SDS011;10942;47.894;11.424;2023-05-23T04:35:55;12.50;;;9.20;;
21562;SDS011;10942;47.894;11.424;2023-05-23T04:38:21;10.23;;;8.07;;
21562;SDS011;10942;47.894;11.424;2023-05-23T04:40:50;13.60;;;9.27;;
21562;SDS011;10942;47.894;11.424;2023-05-23T04:43:54;10.68;;;8.23;;
21562;SDS011;10942;47.894;11.424;2023-05-23T04:46:42;12.20;;;9.13;;
21562;SDS011;10942;47.894;11.424;2023-05-23T04:49:19;14.40;;;9.88;;
21562;SDS011;10942;47.894;11.424;2023-05-23T04:51:46;14.80;;;10.45;;
21562;SDS011;10942;47.894;11.424;2023-05-23T04:54:25;13.20;;;9.73;;
21562;SDS011;10942;47.894;11.424;2023-05-23T04:56:52;13.57;;;10.30;;
21562;SDS011;10942;47.894;11.424;2023-05-23T04:59:19;15.15;;;10.25;;
21562;SDS011;10942;47.894;11.424;2023-05-23T05:01:44;13.02;;;9.85;;
21562;SDS011;10942;47.894;11.424;2023-05-23T05:04:11;12.85;;;9.35;;
21562;SDS011;10942;47.894;11.424;2023-05-23T05:06:38;13.68;;;9.80;;
21562;SDS011;10942;47.894;11.424;2023-05-23T05:09:05;14.52;;;11.18;;
21562;SDS011;10942;47.894;11.424;2023-05-23T05:11:31;14.82;;;11.02;;
21562;SDS011;10942;47.894;11.424;2023-05-23T05:13:57;14.50;;;10.65;;
21562;SDS011;10942;47.894;11.424;2023-05-23T05:16:23;13.45;;;10.10;;
21562;SDS011;10942;47.894;11.424;2023-05-23T05:18:50;15.85;;;10.93;;
21562;SDS011;10942;47.894;11.424;2023-05-23T05:21:17;13.43;;;10.57;;
21562;SDS011;10942;47.894;11.424;2023-05-23T05:23:43;14.85;;;10.65;;
21562;SDS011;10942;47.894;11.424;2023-05-23T05:26:09;15.27;;;11.05;;
21562;SDS011;10942;47.894;11.424;2023-05-23T05:28:36;16.70;;;10.82;;
21562;SDS011;10942;47.894;11.424;2023-05-23T05:31:03;15.57;;;11.50;;
21562;SDS011;10942;47.894;11.424;2023-05-23T05:33:32;15.43;;;11.23;;
21562;SDS011;10942;47.894;11.424;2023-05-23T05:36:11;17.10;;;11.55;;
21562;SDS011;10942;47.894;11.424;2023-05-23T05:38:38;15.40;;;11.18;;
21562;SDS011;10942;47.894;11.424;2023-05-23T05:41:04;14.82;;;11.63;;
21562;SDS011;10942;47.894;11.424;2023-05-23T05:43:33;15.57;;;10.80;;
21562;SDS011;10942;47.894;11.424;2023-05-23T05:46:00;19.73;;;12.98;;
21562;SDS011;10942;47.894;11.424;2023-05-23T05:48:25;15.23;;;10.98;;
21562;SDS011;10942;47.894;11.424;2023-05-23T05:50:53;17.27;;;11.98;;
21562;SDS011;10942;47.894;11.424;2023-05-23T05:53:19;15.63;;;11.70;;
21562;SDS011;10942;47.894;11.424;2023-05-23T05:55:45;16.23;;;12.10;;
21562;SDS011;10942;47.894;11.424;2023-05-23T05:58:11;17.05;;;11.75;;
21562;SDS011;10942;47.894;11.424;2023-05-23T06:00:56;18.92;;;11.93;;
21562;SDS011;10942;47.894;11.424;2023-05-23T06:03:23;16.30;;;11.30;;
21562;SDS011;10942;47.894;11.424;2023-05-23T06:05:52;15.23;;;11.48;;
21562;SDS011;10942;47.894;11.424;2023-05-23T06:08:17;14.73;;;11.25;;
21562;SDS011;10942;47.894;11.424;2023-05-23T06:10:43;17.63;;;11.60;;
21562;SDS011;10942;47.894;11.424;2023-05-23T06:13:09;15.50;;;11.07;;
21562;SDS011;10942;47.894;11.424;2023-05-23T06:15:36;16.90;;;11.35;;
21562;SDS011;10942;47.894;11.424;2023-05-23T06:18:02;15.50;;;11.55;;
21562;SDS011;10942;47.894;11.424;2023-05-23T06:20:30;14.65;;;11.07;;
21562;SDS011;10942;47.894;11.424;2023-05-23T06:22:58;14.63;;;10.88;;
21562;SDS011;10942;47.894;11.424;2023-05-23T06:25:24;16.40;;;12.27;;
21562;SDS011;10942;47.894;11.424;2023-05-23T06:27:51;14.20;;;10.18;;
21562;SDS011;10942;47.894;11.424;2023-05-23T06:30:17;14.18;;;10.70;;
21562;SDS011;10942;47.894;11.424;2023-05-23T06:32:43;14.85;;;11.02;;
21562;SDS011;10942;47.894;11.424;2023-05-23T06:35:09;14.85;;;11.02;;
21562;SDS011;10942;47.894;11.424;2023-05-23T06:37:35;14.38;;;11.00;;
21562;SDS011;10942;47.894;11.424;2023-05-23T06:40:01;15.38;;;11.27;;
21562;SDS011;10942;47.894;11.424;2023-05-23T06:42:26;17.17;;;11.10;;
21562;SDS011;10942;47.894;11.424;2023-05-23T06:45:02;15.57;;;11.07;;
21562;SDS011;10942;47.894;11.424;2023-05-23T06:47:30;16.50;;;10.70;;
21562;SDS011;10942;47.894;11.424;2023-05-23T06:49:56;12.30;;;10.23;;
21562;SDS011;10942;47.894;11.424;2023-05-23T06:52:22;16.20;;;10.95;;
21562;SDS011;10942;47.894;11.424;2023-05-23T06:54:48;14.73;;;10.40;;
21562;SDS011;10942;47.894;11.424;2023-05-23T06:57:14;14.32;;;10.35;;
21562;SDS011;10942;47.894;11.424;2023-05-23T06:59:40;17.73;;;10.50;;
21562;SDS011;10942;47.894;11.424;2023-05-23T07:02:06;12.32;;;9.88;;
21562;SDS011;10942;47.894;11.424;2023-05-23T07:04:32;14.18;;;11.18;;
21562;SDS011;10942;47.894;11.424;2023-05-23T07:07:03;14.85;;;11.82;;
21562;SDS011;10942;47.894;11.424;2023-05-23T07:09:29;15.50;;;11.52;;
21562;SDS011;10942;47.894;11.424;2023-05-23T07:12:05;17.23;;;12.05;;
21562;SDS011;10942;47.894;11.424;2023-05-23T07:14:33;16.42;;;11.27;;
21562;SDS011;10942;47.894;11.424;2023-05-23T07:17:00;14.55;;;10.88;;
21562;SDS011;10942;47.894;11.424;2023-05-23T07:19:25;15.88;;;11.65;;
21562;SDS011;10942;47.894;11.424;2023-05-23T07:21:51;14.50;;;11.48;;
21562;SDS011;10942;47.894;11.424;2023-05-23T07:24:18;16.90;;;11.77;;
21562;SDS011;10942;47.894;11.424;2023-05-23T07:26:43;14.85;;;11.85;;
21562;SDS011;10942;47.894;11.424;2023-05-23T07:29:10;13.43;;;9.95;;
21562;SDS011;10942;47.894;11.424;2023-05-23T07:31:35;15.02;;;11.20;;
21562;SDS011;10942;47.894;11.424;2023-05-23T07:34:01;17.23;;;11.57;;
21562;SDS011;10942;47.894;11.424;2023-05-23T07:36:34;14.98;;;10.93;;
21562;SDS011;10942;47.894;11.424;2023-05-23T07:39:02;17.45;;;12.68;;
21562;SDS011;10942;47.894;11.424;2023-05-23T07:41:29;16.10;;;11.20;;
21562;SDS011;10942;47.894;11.424;2023-05-23T07:43:55;19.52;;;13.20;;
21562;SDS011;10942;47.894;11.424;2023-05-23T07:46:21;17.17;;;12.52;;
21562;SDS011;10942;47.894;11.424;2023-05-23T07:48:47;17.58;;;12.60;;
21562;SDS011;10942;47.894;11.424;2023-05-23T07:51:14;18.25;;;12.75;;
21562;SDS011;10942;47.894;11.424;2023-05-23T07:53:46;15.32;;;11.70;;
21562;SDS011;10942;47.894;11.424;2023-05-23T07:56:12;16.58;;;12.48;;
21562;SDS011;10942;47.894;11.424;2023-05-23T07:58:40;18.23;;;12.85;;
21562;SDS011;10942;47.894;11.424;2023-05-23T08:01:06;23.20;;;15.13;;
21562;SDS011;10942;47.894;11.424;2023-05-23T08:03:55;21.00;;;14.75;;
21562;SDS011;10942;47.894;11.424;2023-05-23T08:06:28;20.80;;;14.98;;
21562;SDS011;10942;47.894;11.424;2023-05-23T08:08:59;22.33;;;16.45;;
21562;SDS011;10942;47.894;11.424;2023-05-23T08:11:26;23.95;;;16.48;;
21562;SDS011;10942;47.894;11.424;2023-05-23T08:13:54;23.38;;;17.25;;
21562;SDS011;10942;47.894;11.424;2023-05-23T08:16:36;22.20;;;15.53;;
21562;SDS011;10942;47.894;11.424;2023-05-23T08:19:04;21.85;;;16.17;;
21562;SDS011;10942;47.894;11.424;2023-05-23T08:21:30;20.30;;;14.90;;
21562;SDS011;10942;47.894;11.424;2023-05-23T08:23:57;22.15;;;16.30;;
21562;SDS011;10942;47.894;11.424;2023-05-23T08:26:23;20.83;;;15.93;;
21562;SDS011;10942;47.894;11.424;2023-05-23T08:28:50;23.38;;;16.15;;
21562;SDS011;10942;47.894;11.424;2023-05-23T08:31:17;23.13;;;15.55;;
21562;SDS011;10942;47.894;11.424;2023-05-23T08:33:43;23.40;;;15.90;;
21562;SDS011;10942;47.894;11.424;2023-05-23T08:36:09;23.75;;;15.77;;
21562;SDS011;10942;47.894;11.424;2023-05-23T08:38:34;24.38;;;16.33;;
21562;SDS011;10942;47.894;11.424;2023-05-23T08:41:14;23.27;;;16.52;;
21562;SDS011;10942;47.894;11.424;2023-05-23T08:43:43;21.98;;;16.80;;
21562;SDS011;10942;47.894;11.424;2023-05-23T08:46:14;23.73;;;17.95;;
21562;SDS011;10942;47.894;11.424;2023-05-23T08:48:41;25.50;;;16.85;;
21562;SDS011;10942;47.894;11.424;2023-05-23T08:51:08;23.00;;;15.88;;
21562;SDS011;10942;47.894;11.424;2023-05-23T08:53:37;24.10;;;16.25;;
21562;SDS011;10942;47.894;11.424;2023-05-23T08:56:08;23.43;;;15.57;;
21562;SDS011;10942;47.894;11.424;2023-05-23T08:58:42;23.75;;;16.02;;
21562;SDS011;10942;47.894;11.424;2023-05-23T09:01:08;20.77;;;15.35;;
21562;SDS011;10942;47.894;11.424;2023-05-23T09:03:36;19.63;;;14.23;;
21562;SDS011;10942;47.894;11.424;2023-05-23T09:06:14;20.05;;;14.82;;
21562;SDS011;10942;47.894;11.424;2023-05-23T09:08:42;21.20;;;15.57;;
21562;SDS011;10942;47.894;11.424;2023-05-23T09:11:11;19.10;;;14.95;;
21562;SDS011;10942;47.894;11.424;2023-05-23T09:13:38;19.80;;;15.57;;
21562;SDS011;10942;47.894;11.424;2023-05-23T09:16:09;23.70;;;15.60;;
21562;SDS011;10942;47.894;11.424;2023-05-23T09:18:43;20.52;;;14.80;;
21562;SDS011;10942;47.894;11.424;2023-05-23T09:21:12;19.48;;;15.82;;
21562;SDS011;10942;47.894;11.424;2023-05-23T09:23:47;19.05;;;15.43;;
21562;SDS011;10942;47.894;11.424;2023-05-23T09:26:14;19.58;;;15.27;;
21562;SDS011;10942;47.894;11.424;2023-05-23T09:28:41;23.52;;;15.57;;
21562;SDS011;10942;47.894;11.424;2023-05-23T09:31:09;24.95;;;17.65;;
21562;SDS011;10942;47.894;11.424;2023-05-23T09:36:03;22.98;;;17.70;;
21562;SDS011;10942;47.894;11.424;2023-05-23T09:38:30;25.85;;;18.92;;
21562;SDS011;10942;47.894;11.424;2023-05-23T09:40:57;24.10;;;17.95;;
21562;SDS011;10942;47.894;11.424;2023-05-23T09:43:23;25.80;;;17.65;;
21562;SDS011;10942;47.894;11.424;2023-05-23T09:45:52;22.02;;;16.63;;
21562;SDS011;10942;47.894;11.424;2023-05-23T09:48:19;25.30;;;18.05;;
21562;SDS011;10942;47.894;11.424;2023-05-23T09:50:54;23.15;;;18.17;;
21562;SDS011;10942;47.894;11.424;2023-05-23T09:53:20;25.13;;;17.90;;
21562;SDS011;10942;47.894;11.424;2023-05-23T09:55:49;23.25;;;17.05;;
21562;SDS011;10942;47.894;11.424;2023-05-23T09:58:18;21.98;;;16.65;;
21562;SDS011;10942;47.894;11.424;2023-05-23T10:00:45;25.42;;;17.08;;
21562;SDS011;10942;47.894;11.424;2023-05-23T10:03:13;24.98;;;18.55;;
21562;SDS011;10942;47.894;11.424;2023-05-23T10:05:43;23.73;;;17.23;;
21562;SDS011;10942;47.894;11.424;2023-05-23T10:13:39;21.17;;;16.27;;
21562;SDS011;10942;47.894;11.424;2023-05-23T10:16:19;20.73;;;16.10;;
21562;SDS011;10942;47.894;11.424;2023-05-23T10:18:56;24.25;;;16.40;;
21562;SDS011;10942;47.894;11.424;2023-05-23T10:21:34;20.83;;;15.25;;
21562;SDS011;10942;47.894;11.424;2023-05-23T10:24:04;22.10;;;15.45;;
21562;SDS011;10942;47.894;11.424;2023-05-23T10:26:32;20.75;;;15.77;;
21562;SDS011;10942;47.894;11.424;2023-05-23T10:28:58;22.88;;;16.95;;
21562;SDS011;10942;47.894;11.424;2023-05-23T10:31:25;25.20;;;18.30;;
21562;SDS011;10942;47.894;11.424;2023-05-23T10:33:57;23.20;;;17.30;;
21562;SDS011;10942;47.894;11.424;2023-05-23T10:36:33;23.95;;;17.15;;
21562;SDS011;10942;47.894;11.424;2023-05-23T10:42:21;23.67;;;16.80;;
21562;SDS011;10942;47.894;11.424;2023-05-23T10:44:48;25.27;;;17.42;;
21562;SDS011;10942;47.894;11.424;2023-05-23T10:47:24;20.98;;;16.02;;
21562;SDS011;10942;47.894;11.424;2023-05-23T10:49:53;21.98;;;16.98;;
21562;SDS011;10942;47.894;11.424;2023-05-23T10:52:22;22.40;;;16.75;;
21562;SDS011;10942;47.894;11.424;2023-05-23T10:54:52;25.92;;;17.48;;
21562;SDS011;10942;47.894;11.424;2023-05-23T10:57:26;24.13;;;17.38;;
21562;SDS011;10942;47.894;11.424;2023-05-23T10:59:51;25.90;;;18.17;;
21562;SDS011;10942;47.894;11.424;2023-05-23T11:02:18;27.08;;;19.65;;
21562;SDS011;10942;47.894;11.424;2023-05-23T11:13:57;29.10;;;19.85;;
21562;SDS011;10942;47.894;11.424;2023-05-23T11:21:44;28.58;;;20.00;;
21562;SDS011;10942;47.894;11.424;2023-05-23T11:24:11;28.33;;;19.38;;
21562;SDS011;10942;47.894;11.424;2023-05-23T11:26:36;28.70;;;21.17;;
21562;SDS011;10942;47.894;11.424;2023-05-23T11:29:03;25.88;;;19.10;;
21562;SDS011;10942;47.894;11.424;2023-05-23T11:31:39;27.90;;;19.88;;
21562;SDS011;10942;47.894;11.424;2023-05-23T11:36:31;23.20;;;17.80;;
21562;SDS011;10942;47.894;11.424;2023-05-23T11:38:59;25.40;;;19.25;;
21562;SDS011;10942;47.894;11.424;2023-05-23T11:41:27;26.52;;;19.83;;
21562;SDS011;10942;47.894;11.424;2023-05-23T11:43:53;26.17;;;18.10;;
21562;SDS011;10942;47.894;11.424;2023-05-23T11:46:18;24.65;;;18.50;;
21562;SDS011;10942;47.894;11.424;2023-05-23T11:48:47;24.95;;;18.17;;
21562;SDS011;10942;47.894;11.424;2023-05-23T11:51:13;24.75;;;17.08;;
21562;SDS011;10942;47.894;11.424;2023-05-23T11:53:39;22.88;;;16.83;;
21562;SDS011;10942;47.894;11.424;2023-05-23T11:56:05;22.73;;;16.98;;
21562;SDS011;10942;47.894;11.424;2023-05-23T11:58:33;23.77;;;16.40;;
21562;SDS011;10942;47.894;11.424;2023-05-23T12:01:00;21.25;;;15.70;;
21562;SDS011;10942;47.894;11.424;2023-05-23T12:03:30;19.88;;;14.93;;
21562;SDS011;10942;47.894;11.424;2023-05-23T12:05:56;21.23;;;15.68;;
21562;SDS011;10942;47.894;11.424;2023-05-23T12:08:22;20.10;;;15.15;;
21562;SDS011;10942;47.894;11.424;2023-05-23T12:10:53;22.20;;;15.27;;
21562;SDS011;10942;47.894;11.424;2023-05-23T12:13:25;21.02;;;15.75;;
21562;SDS011;10942;47.894;11.424;2023-05-23T12:15:57;19.38;;;14.80;;
21562;SDS011;10942;47.894;11.424;2023-05-23T12:18:28;15.60;;;11.52;;
21562;SDS011;10942;47.894;11.424;2023-05-23T12:20:59;13.38;;;9.98;;
21562;SDS011;10942;47.894;11.424;2023-05-23T12:23:30;12.60;;;9.73;;
21562;SDS011;10942;47.894;11.424;2023-05-23T12:25:56;12.88;;;9.63;;
21562;SDS011;10942;47.894;11.424;2023-05-23T12:28:34;14.63;;;9.80;;
21562;SDS011;10942;47.894;11.424;2023-05-23T12:31:12;16.42;;;10.75;;
21562;SDS011;10942;47.894;11.424;2023-05-23T12:33:46;13.20;;;9.60;;
21562;SDS011;10942;47.894;11.424;2023-05-23T12:36:13;13.05;;;10.25;;
21562;SDS011;10942;47.894;11.424;2023-05-23T12:38:39;13.75;;;9.63;;
21562;SDS011;10942;47.894;11.424;2023-05-23T12:41:09;13.32;;;10.32;;
21562;SDS011;10942;47.894;11.424;2023-05-23T12:43:37;13.80;;;10.40;;
21562;SDS011;10942;47.894;11.424;2023-05-23T12:46:13;14.90;;;10.48;;
21562;SDS011;10942;47.894;11.424;2023-05-23T12:48:39;12.60;;;9.13;;
21562;SDS011;10942;47.894;11.424;2023-05-23T12:51:05;14.30;;;10.18;;
21562;SDS011;10942;47.894;11.424;2023-05-23T12:53:31;15.02;;;10.93;;
21562;SDS011;10942;47.894;11.424;2023-05-23T12:55:56;13.23;;;9.60;;
21562;SDS011;10942;47.894;11.424;2023-05-23T12:58:22;11.63;;;8.15;;
21562;SDS011;10942;47.894;11.424;2023-05-23T13:00:48;11.88;;;8.30;;
21562;SDS011;10942;47.894;11.424;2023-05-23T13:03:13;13.45;;;9.10;;
21562;SDS011;10942;47.894;11.424;2023-05-23T13:05:39;10.88;;;7.82;;
21562;SDS011;10942;47.894;11.424;2023-05-23T13:08:05;11.20;;;7.43;;
21562;SDS011;10942;47.894;11.424;2023-05-23T13:10:31;9.52;;;6.65;;
21562;SDS011;10942;47.894;11.424;2023-05-23T13:12:57;10.85;;;7.25;;
21562;SDS011;10942;47.894;11.424;2023-05-23T13:15:22;8.85;;;6.50;;
21562;SDS011;10942;47.894;11.424;2023-05-23T13:17:48;10.18;;;6.43;;
21562;SDS011;10942;47.894;11.424;2023-05-23T13:20:14;8.68;;;6.70;;
21562;SDS011;10942;47.894;11.424;2023-05-23T13:22:39;9.55;;;7.28;;
21562;SDS011;10942;47.894;11.424;2023-05-23T13:25:06;9.07;;;6.75;;
21562;SDS011;10942;47.894;11.424;2023-05-23T13:27:33;10.38;;;7.47;;
21562;SDS011;10942;47.894;11.424;2023-05-23T13:29:59;10.57;;;7.93;;
21562;SDS011;10942;47.894;11.424;2023-05-23T13:32:24;10.23;;;7.25;;
21562;SDS011;10942;47.894;11.424;2023-05-23T13:34:50;10.00;;;7.15;;
21562;SDS011;10942;47.894;11.424;2023-05-23T13:37:16;11.32;;;7.60;;
21562;SDS011;10942;47.894;11.424;2023-05-23T13:39:42;11.05;;;7.80;;
21562;SDS011;10942;47.894;11.424;2023-05-23T13:42:07;9.63;;;7.50;;
21562;SDS011;10942;47.894;11.424;2023-05-23T13:44:33;11.60;;;7.10;;
21562;SDS011;10942;47.894;11.424;2023-05-23T13:47:08;8.57;;;6.63;;
21562;SDS011;10942;47.894;11.424;2023-05-23T13:49:35;10.15;;;7.07;;
21562;SDS011;10942;47.894;11.424;2023-05-23T13:52:01;10.65;;;7.50;;
21562;SDS011;10942;47.894;11.424;2023-05-23T13:54:27;12.15;;;7.10;;
21562;SDS011;10942;47.894;11.424;2023-05-23T13:56:53;10.50;;;7.50;;
21562;SDS011;10942;47.894;11.424;2023-05-23T13:59:18;10.00;;;7.93;;
21562;SDS011;10942;47.894;11.424;2023-05-23T14:01:48;12.88;;;9.07;;
21562;SDS011;10942;47.894;11.424;2023-05-23T14:04:14;12.90;;;8.65;;
21562;SDS011;10942;47.894;11.424;2023-05-23T14:06:39;13.10;;;9.30;;
21562;SDS011;10942;47.894;11.424;2023-05-23T14:09:05;14.38;;;9.75;;
21562;SDS011;10942;47.894;11.424;2023-05-23T14:11:31;13.30;;;9.45;;
21562;SDS011;10942;47.894;11.424;2023-05-23T14:13:57;14.93;;;10.90;;
21562;SDS011;10942;47.894;11.424;2023-05-23T14:16:23;14.10;;;10.30;;
21562;SDS011;10942;47.894;11.424;2023-05-23T14:18:49;12.95;;;9.82;;
21562;SDS011;10942;47.894;11.424;2023-05-23T14:21:14;12.65;;;9.88;;
21562;SDS011;10942;47.894;11.424;2023-05-23T14:23:40;12.38;;;8.98;;
21562;SDS011;10942;47.894;11.424;2023-05-23T14:26:06;12.52;;;9.48;;
21562;SDS011;10942;47.894;11.424;2023-05-23T14:28:32;11.90;;;8.57;;
21562;SDS011;10942;47.894;11.424;2023-05-23T14:30:57;12.43;;;9.00;;
21562;SDS011;10942;47.894;11.424;2023-05-23T14:33:24;11.77;;;8.80;;
21562;SDS011;10942;47.894;11.424;2023-05-23T14:35:49;13.07;;;8.63;;
21562;SDS011;10942;47.894;11.424;2023-05-23T14:38:15;12.20;;;9.38;;
21562;SDS011;10942;47.894;11.424;2023-05-23T14:40:42;11.98;;;8.63;;
21562;SDS011;10942;47.894;11.424;2023-05-23T14:43:08;13.30;;;9.20;;
21562;SDS011;10942;47.894;11.424;2023-05-23T14:45:34;10.95;;;8.38;;
21562;SDS011;10942;47.894;11.424;2023-05-23T14:48:00;11.27;;;8.27;;
21562;SDS011;10942;47.894;11.424;2023-05-23T14:50:26;12.43;;;8.57;;
21562;SDS011;10942;47.894;11.424;2023-05-23T14:52:52;12.75;;;9.90;;